Time;durP1;ratioP1;P1;durP2;ratioP2;P2;SDS_P1;SDS_P2;PMS_P1;PMS_P2;Temp;Humidity;BMP_temperature;BMP_pressure;BME280_temperature;BME280_humidity;BME280_pressure;Samples;Min_cycle;Max_cycle;Signal;HPM_P1;HPM_P2
2023/07/20 00:02:20;;;;;;;5.95;2.65;;;;;;;;;;5133122;27;20066;-69
2023/07/20 00:04:47;;;;;;;6.85;2.50;;;;;;;;;;5132794;27;20119;-69
2023/07/20 00:07:13;;;;;;;5.22;2.40;;;;;;;;;;5132902;27;20104;-69
2023/07/20 00:09:40;;;;;;;6.55;2.50;;;;;;;;;;5133449;27;20062;-69
2023/07/20 00:12:07;;;;;;;6.95;2.60;;;;;;;;;;5133097;27;20039;-69
2023/07/20 00:14:34;;;;;;;6.10;2.35;;;;;;;;;;5133130;27;20051;-73
2023/07/20 00:17:02;;;;;;;6.45;2.28;;;;;;;;;;5132780;27;20047;-68
2023/07/20 00:19:28;;;;;;;5.63;2.22;;;;;;;;;;5133054;27;20093;-69
2023/07/20 00:21:56;;;;;;;6.15;2.15;;;;;;;;;;5132743;27;20099;-69
2023/07/20 00:24:23;;;;;;;5.70;2.45;;;;;;;;;;5132465;27;20104;-70
2023/07/20 00:26:50;;;;;;;4.75;2.38;;;;;;;;;;5132906;27;20118;-69
2023/07/20 00:29:17;;;;;;;5.13;2.33;;;;;;;;;;5132669;27;20043;-72
2023/07/20 00:31:43;;;;;;;4.25;2.28;;;;;;;;;;5132806;27;20059;-68
2023/07/20 00:34:10;;;;;;;7.50;2.80;;;;;;;;;;5132590;27;20555;-68
2023/07/20 00:36:37;;;;;;;8.20;2.55;;;;;;;;;;5132276;27;20555;-73
2023/07/20 00:39:03;;;;;;;6.75;2.72;;;;;;;;;;5132216;27;20055;-72
2023/07/20 00:41:31;;;;;;;6.03;2.40;;;;;;;;;;5132357;27;20044;-69
2023/07/20 00:43:58;;;;;;;4.38;2.22;;;;;;;;;;5132206;27;20047;-69
2023/07/20 00:46:25;;;;;;;4.97;2.75;;;;;;;;;;5132550;27;20039;-69
2023/07/20 00:48:53;;;;;;;5.53;2.28;;;;;;;;;;5132161;27;20402;-69
2023/07/20 00:51:23;;;;;;;6.55;2.50;;;;;;;;;;5132512;27;20051;-69
2023/07/20 00:53:49;;;;;;;4.90;2.45;;;;;;;;;;5131856;27;20093;-69
2023/07/20 00:56:16;;;;;;;7.18;2.70;;;;;;;;;;5131378;27;20050;-71
2023/07/20 00:58:44;;;;;;;8.43;2.55;;;;;;;;;;5132029;27;20047;-70
2023/07/20 01:01:11;;;;;;;5.85;2.35;;;;;;;;;;5132165;27;20380;-70
2023/07/20 01:03:37;;;;;;;6.47;2.50;;;;;;;;;;5131655;27;20559;-69
2023/07/20 01:06:35;;;;;;;5.07;2.50;;;;;;;;;;5131818;27;20500;-69
2023/07/20 01:09:13;;;;;;;7.43;2.53;;;;;;;;;;5131348;27;20448;-73
2023/07/20 01:12:12;;;;;;;6.63;2.50;;;;;;;;;;5132141;27;20509;-71
2023/07/20 01:14:40;;;;;;;4.57;1.98;;;;;;;;;;5131628;27;20065;-68
2023/07/20 01:17:06;;;;;;;6.38;2.72;;;;;;;;;;5131663;27;20043;-71
2023/07/20 01:19:34;;;;;;;4.88;2.38;;;;;;;;;;5131821;27;20058;-69
2023/07/20 01:22:18;;;;;;;6.43;2.33;;;;;;;;;;5131360;27;20498;-71
2023/07/20 01:25:07;;;;;;;5.50;2.40;;;;;;;;;;5131125;27;20051;-70
2023/07/20 01:27:33;;;;;;;5.65;2.40;;;;;;;;;;5131255;27;20043;-72
2023/07/20 01:30:14;;;;;;;5.45;2.35;;;;;;;;;;5131300;27;20047;-70
2023/07/20 01:32:43;;;;;;;8.52;2.38;;;;;;;;;;5131486;27;20043;-71
2023/07/20 01:35:14;;;;;;;6.93;2.30;;;;;;;;;;5130973;27;20043;-73
2023/07/20 01:37:45;;;;;;;4.97;2.17;;;;;;;;;;5130676;27;20475;-69
2023/07/20 01:40:15;;;;;;;4.80;2.03;;;;;;;;;;5130946;27;20453;-69
2023/07/20 01:42:46;;;;;;;5.30;2.38;;;;;;;;;;5130931;27;20049;-73
2023/07/20 01:45:13;;;;;;;5.72;2.50;;;;;;;;;;5131031;27;20071;-69
2023/07/20 01:47:40;;;;;;;4.97;2.55;;;;;;;;;;5131346;27;20078;-71
2023/07/20 01:50:07;;;;;;;4.38;2.20;;;;;;;;;;5131056;27;20050;-69
2023/07/20 01:52:34;;;;;;;3.53;2.03;;;;;;;;;;5130962;27;20058;-69
2023/07/20 01:55:01;;;;;;;3.85;1.98;;;;;;;;;;5130497;27;20508;-69
2023/07/20 01:57:28;;;;;;;5.30;2.20;;;;;;;;;;5130908;27;20118;-71
2023/07/20 01:59:54;;;;;;;4.28;2.10;;;;;;;;;;5130529;27;20047;-70
2023/07/20 02:02:26;;;;;;;3.47;1.90;;;;;;;;;;5130909;27;20133;-70
2023/07/20 02:04:53;;;;;;;4.85;2.33;;;;;;;;;;5130496;27;20070;-71
2023/07/20 02:07:19;;;;;;;3.63;1.95;;;;;;;;;;5129936;27;20051;-70
2023/07/20 02:09:46;;;;;;;3.03;1.98;;;;;;;;;;5129961;27;20050;-70
2023/07/20 02:12:13;;;;;;;3.25;1.85;;;;;;;;;;5131042;27;20047;-70
2023/07/20 02:14:39;;;;;;;3.33;1.90;;;;;;;;;;5130641;27;20589;-70
2023/07/20 02:17:06;;;;;;;3.88;2.30;;;;;;;;;;5130445;27;20054;-77
2023/07/20 02:19:32;;;;;;;3.78;2.20;;;;;;;;;;5130090;27;20053;-77
2023/07/20 02:21:59;;;;;;;4.32;2.13;;;;;;;;;;5130404;27;20092;-70
2023/07/20 02:24:26;;;;;;;3.83;2.13;;;;;;;;;;5129904;27;20047;-69
2023/07/20 02:26:52;;;;;;;4.70;2.00;;;;;;;;;;5130392;27;20051;-68
2023/07/20 02:29:19;;;;;;;3.72;2.05;;;;;;;;;;5130192;27;20049;-68
2023/07/20 02:31:45;;;;;;;4.20;2.13;;;;;;;;;;5130479;27;20039;-69
2023/07/20 02:34:13;;;;;;;4.07;2.00;;;;;;;;;;5129986;27;20054;-69
2023/07/20 02:36:42;;;;;;;6.38;2.50;;;;;;;;;;5130047;27;20058;-69
2023/07/20 02:39:10;;;;;;;4.18;1.95;;;;;;;;;;5129273;27;20406;-72
2023/07/20 02:41:36;;;;;;;5.22;2.30;;;;;;;;;;5130228;27;20054;-69
2023/07/20 02:44:03;;;;;;;3.92;2.28;;;;;;;;;;5129887;27;20040;-75
2023/07/20 02:46:30;;;;;;;4.78;2.40;;;;;;;;;;5129975;27;20048;-68
2023/07/20 02:48:57;;;;;;;7.03;2.30;;;;;;;;;;5129745;27;20047;-68
2023/07/20 02:51:24;;;;;;;5.13;2.22;;;;;;;;;;5130150;28;20043;-68
2023/07/20 02:53:50;;;;;;;4.25;2.00;;;;;;;;;;5129792;28;20043;-68
2023/07/20 02:56:17;;;;;;;4.47;2.05;;;;;;;;;;5129885;28;20570;-68
2023/07/20 02:58:45;;;;;;;3.45;2.03;;;;;;;;;;5130118;28;20095;-68
2023/07/20 03:01:13;;;;;;;6.60;2.00;;;;;;;;;;5130040;28;20059;-68
2023/07/20 03:03:39;;;;;;;4.45;2.10;;;;;;;;;;5129845;28;20111;-68
2023/07/20 03:06:09;;;;;;;3.03;1.90;;;;;;;;;;5129746;28;20082;-68
2023/07/20 03:08:36;;;;;;;4.63;2.10;;;;;;;;;;5129387;27;20046;-68
2023/07/20 03:11:02;;;;;;;5.05;2.03;;;;;;;;;;5130093;28;20043;-68
2023/07/20 03:13:29;;;;;;;3.78;2.00;;;;;;;;;;5129791;28;20418;-73
2023/07/20 03:15:56;;;;;;;3.63;2.05;;;;;;;;;;5129439;28;20509;-71
2023/07/20 03:18:23;;;;;;;3.40;1.83;;;;;;;;;;5129934;28;20095;-70
2023/07/20 03:20:49;;;;;;;6.68;2.03;;;;;;;;;;5132811;27;20043;-70
2023/07/20 03:23:16;;;;;;;6.35;2.53;;;;;;;;;;5133271;27;20095;-69
2023/07/20 03:25:43;;;;;;;4.80;2.10;;;;;;;;;;5133499;27;20070;-69
2023/07/20 03:28:10;;;;;;;5.50;2.10;;;;;;;;;;5133728;27;20039;-71
2023/07/20 03:30:36;;;;;;;3.72;1.95;;;;;;;;;;5133349;27;20055;-73
2023/07/20 03:33:03;;;;;;;4.63;2.20;;;;;;;;;;5133975;27;20079;-69
2023/07/20 03:35:31;;;;;;;3.38;1.98;;;;;;;;;;5133653;27;20099;-70
2023/07/20 03:37:57;;;;;;;6.45;1.98;;;;;;;;;;5133026;27;20490;-69
2023/07/20 03:40:24;;;;;;;4.50;2.17;;;;;;;;;;5133354;27;20050;-69
2023/07/20 03:42:51;;;;;;;2.92;1.83;;;;;;;;;;5133345;27;20043;-68
2023/07/20 03:45:18;;;;;;;3.30;1.98;;;;;;;;;;5132746;27;20046;-71
2023/07/20 03:47:45;;;;;;;3.90;1.70;;;;;;;;;;5133409;27;20047;-69
2023/07/20 03:50:11;;;;;;;3.70;1.95;;;;;;;;;;5133230;27;20050;-70
2023/07/20 03:52:38;;;;;;;3.28;1.73;;;;;;;;;;5133171;27;20043;-69
2023/07/20 03:55:05;;;;;;;4.88;2.05;;;;;;;;;;5133144;27;20407;-70
2023/07/20 03:57:33;;;;;;;5.03;1.90;;;;;;;;;;5132943;27;20122;-68
2023/07/20 03:59:59;;;;;;;4.30;2.10;;;;;;;;;;5132707;27;20043;-73
2023/07/20 04:02:26;;;;;;;4.00;2.10;;;;;;;;;;5133052;27;20439;-69
2023/07/20 04:04:53;;;;;;;5.07;2.05;;;;;;;;;;5132520;27;20099;-69
2023/07/20 04:07:20;;;;;;;8.35;2.10;;;;;;;;;;5132470;27;20043;-71
2023/07/20 04:09:46;;;;;;;4.47;1.85;;;;;;;;;;5132573;27;20514;-70
2023/07/20 04:12:13;;;;;;;3.25;1.88;;;;;;;;;;5132763;27;20050;-69
2023/07/20 04:14:39;;;;;;;3.88;1.90;;;;;;;;;;5133057;27;20043;-68
2023/07/20 04:17:06;;;;;;;4.95;2.08;;;;;;;;;;5132703;27;20070;-68
2023/07/20 04:19:33;;;;;;;2.90;1.90;;;;;;;;;;5132604;27;20118;-73
2023/07/20 04:21:59;;;;;;;4.25;1.95;;;;;;;;;;5132115;27;20079;-68
2023/07/20 04:24:26;;;;;;;3.28;1.60;;;;;;;;;;5132494;27;20066;-73
2023/07/20 04:26:53;;;;;;;4.35;2.05;;;;;;;;;;5132207;27;20039;-72
2023/07/20 04:29:19;;;;;;;2.90;1.80;;;;;;;;;;5132416;27;20424;-71
2023/07/20 04:31:46;;;;;;;3.53;1.60;;;;;;;;;;5131442;27;20047;-69
2023/07/20 04:34:13;;;;;;;5.22;1.80;;;;;;;;;;5132577;27;20043;-70
2023/07/20 04:36:39;;;;;;;3.35;1.67;;;;;;;;;;5132387;27;20043;-68
2023/07/20 04:39:08;;;;;;;3.63;1.65;;;;;;;;;;5132131;27;20054;-69
2023/07/20 04:41:54;;;;;;;3.53;1.45;;;;;;;;;;5132437;27;20139;-75
2023/07/20 04:44:21;;;;;;;3.33;1.50;;;;;;;;;;5132176;27;20061;-70
2023/07/20 04:46:48;;;;;;;2.85;1.30;;;;;;;;;;5131910;27;20108;-73
2023/07/20 04:49:14;;;;;;;3.42;1.60;;;;;;;;;;5132581;27;20039;-68
2023/07/20 04:51:41;;;;;;;2.22;1.38;;;;;;;;;;5132214;27;20043;-69
2023/07/20 04:54:08;;;;;;;2.85;1.70;;;;;;;;;;5131852;27;20054;-68
2023/07/20 04:56:34;;;;;;;2.80;1.20;;;;;;;;;;5132125;27;20085;-71
2023/07/20 04:59:01;;;;;;;1.92;1.25;;;;;;;;;;5132058;27;20147;-76
2023/07/20 05:01:28;;;;;;;4.93;1.45;;;;;;;;;;5131664;27;20044;-77
2023/07/20 05:03:54;;;;;;;2.40;1.35;;;;;;;;;;5131972;27;20039;-71
2023/07/20 05:06:21;;;;;;;3.85;1.67;;;;;;;;;;5131795;27;20096;-71
2023/07/20 05:08:48;;;;;;;3.05;1.70;;;;;;;;;;5131384;27;20040;-68
2023/07/20 05:11:15;;;;;;;3.47;1.70;;;;;;;;;;5131511;27;20051;-68
2023/07/20 05:13:42;;;;;;;2.92;1.42;;;;;;;;;;5131807;27;20123;-72
2023/07/20 05:16:09;;;;;;;2.35;1.40;;;;;;;;;;5131343;27;20043;-68
2023/07/20 05:18:35;;;;;;;2.65;1.42;;;;;;;;;;5131400;27;20079;-68
2023/07/20 05:21:02;;;;;;;2.60;1.40;;;;;;;;;;5131051;27;20075;-69
2023/07/20 05:23:29;;;;;;;5.05;1.50;;;;;;;;;;5131163;27;20529;-73
2023/07/20 05:25:58;;;;;;;3.13;1.35;;;;;;;;;;5131413;27;20051;-71
2023/07/20 05:28:26;;;;;;;2.75;1.60;;;;;;;;;;5131479;27;20107;-70
2023/07/20 05:30:53;;;;;;;3.25;1.63;;;;;;;;;;5131038;27;20467;-69
2023/07/20 05:33:20;;;;;;;2.25;1.35;;;;;;;;;;5131359;27;20511;-68
2023/07/20 05:35:48;;;;;;;3.60;1.45;;;;;;;;;;5130969;27;20040;-69
2023/07/20 05:38:14;;;;;;;4.65;1.50;;;;;;;;;;5130908;27;20131;-68
2023/07/20 05:40:42;;;;;;;2.88;1.20;;;;;;;;;;5130725;27;20539;-68
2023/07/20 05:43:09;;;;;;;2.45;1.23;;;;;;;;;;5130906;27;20047;-69
2023/07/20 05:45:36;;;;;;;2.92;1.40;;;;;;;;;;5130848;27;20047;-68
2023/07/20 05:48:03;;;;;;;2.38;1.42;;;;;;;;;;5130812;27;20043;-71
2023/07/20 05:50:30;;;;;;;4.68;1.58;;;;;;;;;;5131186;27;20067;-68
2023/07/20 05:52:56;;;;;;;4.03;1.33;;;;;;;;;;5130671;27;20051;-68
2023/07/20 05:55:23;;;;;;;2.65;1.42;;;;;;;;;;5130650;27;20162;-70
2023/07/20 05:57:49;;;;;;;5.10;1.50;;;;;;;;;;5130632;27;20043;-69
2023/07/20 06:00:19;;;;;;;3.00;1.23;;;;;;;;;;5130692;27;20490;-70
2023/07/20 06:02:47;;;;;;;1.88;1.10;;;;;;;;;;5130312;27;20046;-69
2023/07/20 06:05:15;;;;;;;2.45;1.10;;;;;;;;;;5130471;27;20142;-68
2023/07/20 06:07:41;;;;;;;2.70;1.30;;;;;;;;;;5130070;27;20126;-69
2023/07/20 06:10:08;;;;;;;3.35;1.30;;;;;;;;;;5130892;27;20047;-70
2023/07/20 06:12:35;;;;;;;3.33;1.38;;;;;;;;;;5130475;27;20047;-70
2023/07/20 06:15:03;;;;;;;3.78;1.40;;;;;;;;;;5130655;27;20491;-71
2023/07/20 06:17:30;;;;;;;3.67;1.38;;;;;;;;;;5130215;27;20044;-69
2023/07/20 06:19:57;;;;;;;2.28;1.20;;;;;;;;;;5130478;27;20051;-73
2023/07/20 06:22:23;;;;;;;2.67;1.40;;;;;;;;;;5129825;27;20050;-74
2023/07/20 06:24:50;;;;;;;1.77;1.08;;;;;;;;;;5130248;27;20440;-69
2023/07/20 06:27:17;;;;;;;5.05;1.70;;;;;;;;;;5129965;27;20050;-73
2023/07/20 06:29:43;;;;;;;3.67;1.40;;;;;;;;;;5129942;27;20059;-74
2023/07/20 06:32:10;;;;;;;2.22;1.30;;;;;;;;;;5130398;27;20040;-70
2023/07/20 06:34:38;;;;;;;2.72;1.42;;;;;;;;;;5112111;27;20047;-73
2023/07/20 06:37:04;;;;;;;2.05;1.20;;;;;;;;;;5129587;27;20527;-69
2023/07/20 06:39:31;;;;;;;2.70;1.10;;;;;;;;;;5129931;27;20100;-72
2023/07/20 06:42:00;;;;;;;3.63;1.33;;;;;;;;;;5130066;27;20047;-73
2023/07/20 06:44:27;;;;;;;3.83;1.25;;;;;;;;;;5129829;27;20129;-70
2023/07/20 06:46:54;;;;;;;3.67;1.40;;;;;;;;;;5129732;27;20051;-72
2023/07/20 06:49:27;;;;;;;3.33;1.20;;;;;;;;;;5130189;27;20048;-69
2023/07/20 06:51:54;;;;;;;5.45;1.60;;;;;;;;;;5129818;27;20444;-69
2023/07/20 06:54:21;;;;;;;3.33;1.40;;;;;;;;;;5129149;27;20130;-69
2023/07/20 06:56:50;;;;;;;3.80;1.60;;;;;;;;;;5129660;28;20096;-68
2023/07/20 06:59:37;;;;;;;3.30;1.30;;;;;;;;;;5129748;28;20096;-69
2023/07/20 07:02:08;;;;;;;2.45;1.30;;;;;;;;;;5129475;27;20086;-71
2023/07/20 07:04:40;;;;;;;3.53;1.60;;;;;;;;;;5129672;27;20055;-73
2023/07/20 07:07:07;;;;;;;3.25;1.30;;;;;;;;;;5129217;27;20086;-68
2023/07/20 07:09:34;;;;;;;2.20;1.20;;;;;;;;;;5129778;28;20039;-67
2023/07/20 07:12:01;;;;;;;3.58;1.63;;;;;;;;;;5129657;27;20502;-73
2023/07/20 07:14:29;;;;;;;2.90;1.30;;;;;;;;;;5130128;28;20131;-69
2023/07/20 07:16:55;;;;;;;2.47;1.48;;;;;;;;;;5129620;28;20062;-71
2023/07/20 07:19:24;;;;;;;1.95;1.30;;;;;;;;;;5129840;27;20047;-68
2023/07/20 07:21:50;;;;;;;3.70;1.40;;;;;;;;;;5129462;28;20047;-68
2023/07/20 07:24:17;;;;;;;3.50;1.30;;;;;;;;;;5129426;28;20525;-68
2023/07/20 07:26:45;;;;;;;2.15;1.17;;;;;;;;;;5129578;28;20043;-68
2023/07/20 07:29:12;;;;;;;4.70;1.23;;;;;;;;;;5129470;27;20437;-70
2023/07/20 07:31:39;;;;;;;5.38;1.42;;;;;;;;;;5129629;28;20054;-68
2023/07/20 07:34:06;;;;;;;2.80;1.20;;;;;;;;;;5129211;28;20130;-69
2023/07/20 07:36:33;;;;;;;2.28;1.27;;;;;;;;;;5129566;27;20065;-68
2023/07/20 07:39:00;;;;;;;2.38;1.30;;;;;;;;;;5128997;28;20059;-69
2023/07/20 07:41:29;;;;;;;3.67;1.27;;;;;;;;;;5129891;28;20066;-72
2023/07/20 07:43:56;;;;;;;3.40;1.50;;;;;;;;;;5129521;28;20040;-70
2023/07/20 07:46:23;;;;;;;2.72;1.33;;;;;;;;;;5129657;28;20043;-73
2023/07/20 07:48:50;;;;;;;2.28;1.30;;;;;;;;;;5128944;28;20043;-69
2023/07/20 07:51:16;;;;;;;4.63;1.15;;;;;;;;;;5129437;28;20395;-68
2023/07/20 07:53:43;;;;;;;2.33;1.30;;;;;;;;;;5129112;27;20349;-68
2023/07/20 07:56:10;;;;;;;2.28;1.30;;;;;;;;;;5129575;28;20047;-70
2023/07/20 07:58:37;;;;;;;2.22;1.20;;;;;;;;;;5129032;28;20039;-68
2023/07/20 08:01:04;;;;;;;3.75;1.10;;;;;;;;;;5129363;28;20390;-69
2023/07/20 08:03:31;;;;;;;2.67;1.25;;;;;;;;;;5128965;28;20118;-69
2023/07/20 08:05:59;;;;;;;4.35;1.67;;;;;;;;;;5129649;27;20129;-70
2023/07/20 08:08:26;;;;;;;2.63;1.20;;;;;;;;;;5132168;27;20096;-71
2023/07/20 08:10:54;;;;;;;7.32;1.33;;;;;;;;;;5132983;27;20488;-71
2023/07/20 08:13:21;;;;;;;2.28;1.30;;;;;;;;;;5132818;27;20506;-74
2023/07/20 08:15:51;;;;;;;4.00;1.33;;;;;;;;;;5132722;27;20047;-71
2023/07/20 08:18:18;;;;;;;2.42;1.40;;;;;;;;;;5132471;27;20447;-69
2023/07/20 08:20:45;;;;;;;1.92;1.08;;;;;;;;;;5132526;27;20043;-74
2023/07/20 08:23:12;;;;;;;2.03;1.23;;;;;;;;;;5132114;27;20039;-71
2023/07/20 08:25:43;;;;;;;4.28;1.20;;;;;;;;;;5132911;27;20047;-70
2023/07/20 08:28:16;;;;;;;3.17;1.30;;;;;;;;;;5132593;27;20103;-69
2023/07/20 08:30:47;;;;;;;2.95;1.27;;;;;;;;;;5132243;27;20068;-70
2023/07/20 08:33:15;;;;;;;2.55;1.00;;;;;;;;;;5132456;27;20043;-73
2023/07/20 08:35:42;;;;;;;3.40;1.15;;;;;;;;;;5132587;27;20122;-72
2023/07/20 08:38:09;;;;;;;3.92;1.52;;;;;;;;;;5131650;27;20399;-72
2023/07/20 08:40:43;;;;;;;1.73;1.00;;;;;;;;;;5132181;27;20563;-68
2023/07/20 08:43:16;;;;;;;1.88;1.20;;;;;;;;;;5131983;27;20104;-69
2023/07/20 08:45:45;;;;;;;1.88;1.10;;;;;;;;;;5132190;27;20043;-69
2023/07/20 08:48:12;;;;;;;1.98;1.00;;;;;;;;;;5132237;27;20039;-69
2023/07/20 08:50:39;;;;;;;4.47;1.23;;;;;;;;;;5131883;27;20062;-69
2023/07/20 08:53:06;;;;;;;3.05;1.10;;;;;;;;;;5131376;27;20482;-73
2023/07/20 08:55:34;;;;;;;2.15;1.10;;;;;;;;;;5132080;27;20062;-70
2023/07/20 08:58:02;;;;;;;2.20;1.10;;;;;;;;;;5132076;27;20051;-77
2023/07/20 09:00:29;;;;;;;2.17;1.00;;;;;;;;;;5131946;27;20043;-77
2023/07/20 09:02:57;;;;;;;2.83;1.20;;;;;;;;;;5132075;27;20091;-68
2023/07/20 09:05:24;;;;;;;1.52;1.00;;;;;;;;;;5131829;27;20532;-68
2023/07/20 09:07:53;;;;;;;3.80;1.10;;;;;;;;;;5131451;27;20069;-71
2023/07/20 09:10:24;;;;;;;4.43;0.95;;;;;;;;;;5131517;27;20050;-73
2023/07/20 09:12:51;;;;;;;2.55;0.98;;;;;;;;;;5131407;27;20059;-68
2023/07/20 09:15:20;;;;;;;2.90;1.00;;;;;;;;;;5131911;27;20082;-69
2023/07/20 09:17:48;;;;;;;2.10;1.10;;;;;;;;;;5131141;27;20501;-70
2023/07/20 09:20:18;;;;;;;1.92;1.00;;;;;;;;;;5131210;27;20054;-68
2023/07/20 09:22:50;;;;;;;1.88;0.85;;;;;;;;;;5131076;27;20043;-68
2023/07/20 09:25:19;;;;;;;2.17;1.10;;;;;;;;;;5131692;27;20047;-68
2023/07/20 09:27:49;;;;;;;1.65;1.10;;;;;;;;;;5131654;27;20133;-68
2023/07/20 09:30:18;;;;;;;1.08;0.80;;;;;;;;;;5130866;27;20039;-68
2023/07/20 09:32:47;;;;;;;1.80;1.00;;;;;;;;;;5131247;27;20053;-70
2023/07/20 09:35:20;;;;;;;4.00;1.10;;;;;;;;;;5131399;27;20054;-68
2023/07/20 09:38:00;;;;;;;3.03;1.00;;;;;;;;;;5131151;27;20055;-68
2023/07/20 09:40:30;;;;;;;2.78;0.90;;;;;;;;;;5131153;27;20070;-68
2023/07/20 09:43:00;;;;;;;2.20;1.30;;;;;;;;;;5131404;27;20043;-68
2023/07/20 09:45:33;;;;;;;3.72;1.00;;;;;;;;;;5131245;27;20043;-67
2023/07/20 09:48:07;;;;;;;2.88;1.10;;;;;;;;;;5131014;27;20059;-68
2023/07/20 09:50:48;;;;;;;2.22;1.10;;;;;;;;;;5131090;27;20104;-68
2023/07/20 09:53:17;;;;;;;2.88;0.98;;;;;;;;;;5130475;27;20043;-68
2023/07/20 09:55:45;;;;;;;2.22;1.23;;;;;;;;;;5130876;27;20111;-68
2023/07/20 09:58:11;;;;;;;2.00;1.10;;;;;;;;;;5130876;27;20384;-68
2023/07/20 10:00:40;;;;;;;4.38;1.20;;;;;;;;;;5130364;27;20073;-68
2023/07/20 10:03:12;;;;;;;2.63;1.15;;;;;;;;;;5130741;27;20418;-67
2023/07/20 10:05:54;;;;;;;2.00;1.20;;;;;;;;;;5130559;27;20499;-68
2023/07/20 10:08:24;;;;;;;1.77;1.00;;;;;;;;;;5130321;27;20054;-68
2023/07/20 10:10:54;;;;;;;2.90;1.20;;;;;;;;;;5130420;27;20070;-69
2023/07/20 10:13:27;;;;;;;3.22;1.33;;;;;;;;;;5130716;27;20051;-68
2023/07/20 10:16:08;;;;;;;2.80;1.10;;;;;;;;;;5130658;27;20043;-68
2023/07/20 10:18:50;;;;;;;1.20;0.80;;;;;;;;;;5130451;27;20089;-69
2023/07/20 10:21:19;;;;;;;1.40;0.90;;;;;;;;;;5130323;27;20534;-71
2023/07/20 10:23:49;;;;;;;3.00;1.10;;;;;;;;;;5130422;27;20049;-69
2023/07/20 10:26:16;;;;;;;3.47;1.25;;;;;;;;;;5130646;27;20074;-68
2023/07/20 10:28:43;;;;;;;4.22;1.13;;;;;;;;;;5130028;27;20051;-69
2023/07/20 10:31:12;;;;;;;1.48;1.00;;;;;;;;;;5129670;27;20134;-72
2023/07/20 10:33:39;;;;;;;2.17;1.20;;;;;;;;;;5130259;27;20039;-68
2023/07/20 10:36:06;;;;;;;2.60;1.00;;;;;;;;;;5130206;27;20444;-70
2023/07/20 10:38:53;;;;;;;3.25;1.15;;;;;;;;;;5130048;27;20094;-73
2023/07/20 10:41:21;;;;;;;2.10;1.10;;;;;;;;;;5130273;27;20047;-69
2023/07/20 10:43:49;;;;;;;1.95;1.20;;;;;;;;;;5130074;27;20471;-69
2023/07/20 10:46:34;;;;;;;2.85;0.90;;;;;;;;;;5129945;27;20505;-69
2023/07/20 10:49:04;;;;;;;3.13;1.40;;;;;;;;;;5130090;27;20078;-71
2023/07/20 10:51:42;;;;;;;3.45;1.17;;;;;;;;;;5130263;27;20047;-68
2023/07/20 10:54:15;;;;;;;2.17;1.10;;;;;;;;;;5129597;27;20043;-68
2023/07/20 10:56:42;;;;;;;1.52;1.00;;;;;;;;;;5130484;28;20555;-71
2023/07/20 10:59:25;;;;;;;2.55;1.10;;;;;;;;;;5130519;27;20047;-70
2023/07/20 11:01:56;;;;;;;1.60;0.95;;;;;;;;;;5130031;28;20417;-70
2023/07/20 11:04:51;;;;;;;1.77;1.00;;;;;;;;;;5129840;27;20071;-69
2023/07/20 11:07:39;;;;;;;2.25;1.08;;;;;;;;;;5108242;28;20655;-68
2023/07/20 11:10:14;;;;;;;2.95;1.25;;;;;;;;;;5129901;28;20510;-68
2023/07/20 11:13:20;;;;;;;2.47;1.25;;;;;;;;;;5130194;28;20039;-68
2023/07/20 11:15:56;;;;;;;1.33;1.00;;;;;;;;;;5129870;28;20438;-71
2023/07/20 11:18:25;;;;;;;1.73;1.00;;;;;;;;;;5130304;28;20047;-68
2023/07/20 11:20:53;;;;;;;2.38;1.25;;;;;;;;;;5129847;28;20130;-71
2023/07/20 11:23:20;;;;;;;2.00;1.25;;;;;;;;;;5129757;28;20050;-68
2023/07/20 11:25:47;;;;;;;4.13;1.30;;;;;;;;;;5129788;27;20043;-72
2023/07/20 11:28:17;;;;;;;4.82;1.10;;;;;;;;;;5129786;28;20047;-73
2023/07/20 11:30:43;;;;;;;2.20;1.10;;;;;;;;;;5129313;28;20057;-69
2023/07/20 11:33:10;;;;;;;2.67;1.08;;;;;;;;;;5130239;28;20043;-73
2023/07/20 11:35:45;;;;;;;2.72;1.30;;;;;;;;;;5129682;27;20043;-68
2023/07/20 11:38:13;;;;;;;2.35;1.48;;;;;;;;;;5129763;28;20055;-67
2023/07/20 11:40:46;;;;;;;4.38;1.20;;;;;;;;;;5130508;27;20457;-68
2023/07/20 11:43:14;;;;;;;1.73;1.13;;;;;;;;;;5133785;27;20046;-67
2023/07/20 11:45:45;;;;;;;4.28;1.30;;;;;;;;;;5133333;27;20043;-69
2023/07/20 11:48:15;;;;;;;2.88;1.20;;;;;;;;;;5133991;27;20050;-69
2023/07/20 11:50:42;;;;;;;2.97;1.33;;;;;;;;;;5133198;27;20050;-68
2023/07/20 11:53:09;;;;;;;3.08;1.42;;;;;;;;;;5133329;27;20043;-68
2023/07/20 11:55:36;;;;;;;3.15;2.00;;;;;;;;;;5133642;27;20039;-69
2023/07/20 11:58:07;;;;;;;2.28;1.30;;;;;;;;;;5133332;27;20054;-69
2023/07/20 12:00:35;;;;;;;2.08;1.02;;;;;;;;;;5133179;27;20127;-68
2023/07/20 12:03:06;;;;;;;2.75;0.93;;;;;;;;;;5133081;27;20043;-74
2023/07/20 12:05:34;;;;;;;1.25;0.90;;;;;;;;;;5133207;27;20043;-69
2023/07/20 12:08:21;;;;;;;1.95;1.10;;;;;;;;;;5132877;27;20100;-69
2023/07/20 12:10:48;;;;;;;3.33;1.10;;;;;;;;;;5133120;27;20133;-71
2023/07/20 12:13:15;;;;;;;2.78;1.10;;;;;;;;;;5133371;27;20054;-69
2023/07/20 12:15:43;;;;;;;3.25;1.20;;;;;;;;;;5132856;27;20096;-68
2023/07/20 12:18:09;;;;;;;2.28;1.00;;;;;;;;;;5133311;27;20055;-72
2023/07/20 12:20:37;;;;;;;1.95;1.27;;;;;;;;;;5133075;27;20047;-69
2023/07/20 12:23:08;;;;;;;2.13;1.10;;;;;;;;;;5132672;27;20047;-71
2023/07/20 12:25:42;;;;;;;4.72;1.20;;;;;;;;;;5133217;27;20047;-68
2023/07/20 12:28:11;;;;;;;1.88;1.08;;;;;;;;;;5133294;27;20115;-70
2023/07/20 12:30:39;;;;;;;2.70;1.15;;;;;;;;;;5114467;27;20557;-69
2023/07/20 12:33:06;;;;;;;2.03;1.10;;;;;;;;;;5132724;27;20047;-69
2023/07/20 12:35:33;;;;;;;2.38;1.20;;;;;;;;;;5132521;27;20513;-69
2023/07/20 12:38:00;;;;;;;1.73;1.10;;;;;;;;;;5132400;27;20552;-70
2023/07/20 12:40:27;;;;;;;4.53;1.05;;;;;;;;;;5132538;27;20088;-68
2023/07/20 12:42:53;;;;;;;2.30;1.25;;;;;;;;;;5132847;27;20043;-67
2023/07/20 12:45:21;;;;;;;3.28;1.05;;;;;;;;;;5132360;27;20050;-67
2023/07/20 12:47:48;;;;;;;1.38;1.00;;;;;;;;;;5132841;27;20043;-67
2023/07/20 12:50:15;;;;;;;2.45;1.00;;;;;;;;;;5132485;27;20075;-69
2023/07/20 12:52:42;;;;;;;1.38;0.98;;;;;;;;;;5131000;27;20092;-69
2023/07/20 12:55:09;;;;;;;1.63;1.10;;;;;;;;;;5132605;27;20039;-71
2023/07/20 12:57:37;;;;;;;4.10;1.10;;;;;;;;;;5132299;27;20054;-69
2023/07/20 13:00:07;;;;;;;1.27;1.00;;;;;;;;;;5132501;27;20135;-69
2023/07/20 13:02:35;;;;;;;1.58;1.13;;;;;;;;;;5132088;27;20040;-71
2023/07/20 13:05:03;;;;;;;3.50;1.20;;;;;;;;;;5132274;27;20818;-69
2023/07/20 13:07:36;;;;;;;2.25;1.13;;;;;;;;;;5113297;27;20047;-67
2023/07/20 13:10:06;;;;;;;3.50;1.30;;;;;;;;;;5132059;27;20051;-70
2023/07/20 13:12:35;;;;;;;3.53;1.13;;;;;;;;;;5131724;27;20043;-69
2023/07/20 13:15:05;;;;;;;2.33;1.33;;;;;;;;;;5131862;27;20160;-68
2023/07/20 13:17:33;;;;;;;3.08;1.20;;;;;;;;;;5131528;27;20051;-71
2023/07/20 13:20:00;;;;;;;2.72;1.23;;;;;;;;;;5131840;27;20047;-68
2023/07/20 13:22:27;;;;;;;2.97;1.40;;;;;;;;;;5131015;27;20047;-68
2023/07/20 13:24:53;;;;;;;2.70;1.20;;;;;;;;;;5131949;27;20050;-68
2023/07/20 13:27:20;;;;;;;1.38;1.00;;;;;;;;;;5131551;27;20592;-68
2023/07/20 13:29:47;;;;;;;2.58;1.10;;;;;;;;;;5131411;27;20051;-69
2023/07/20 13:32:15;;;;;;;2.15;1.20;;;;;;;;;;5130967;27;20047;-71
2023/07/20 13:34:42;;;;;;;2.65;1.10;;;;;;;;;;5113223;27;20122;-68
2023/07/20 13:37:09;;;;;;;2.40;1.10;;;;;;;;;;5131095;27;20043;-74
2023/07/20 13:39:38;;;;;;;3.15;1.20;;;;;;;;;;5131933;27;20039;-69
2023/07/20 13:42:06;;;;;;;2.33;1.20;;;;;;;;;;5131147;27;20449;-69
2023/07/20 13:44:33;;;;;;;1.48;1.08;;;;;;;;;;5131896;27;20043;-69
2023/07/20 13:47:00;;;;;;;1.75;1.00;;;;;;;;;;5131102;27;20047;-68
2023/07/20 13:49:30;;;;;;;2.80;1.10;;;;;;;;;;5131896;27;20051;-68
2023/07/20 13:52:02;;;;;;;2.90;1.40;;;;;;;;;;5130299;27;20047;-70
2023/07/20 13:54:32;;;;;;;3.35;1.30;;;;;;;;;;5131048;27;20495;-68
2023/07/20 13:56:58;;;;;;;1.90;1.15;;;;;;;;;;5131020;27;20091;-68
2023/07/20 13:59:25;;;;;;;3.00;1.27;;;;;;;;;;5113033;27;20499;-70
2023/07/20 14:01:52;;;;;;;3.33;1.08;;;;;;;;;;5130650;27;20099;-72
2023/07/20 14:04:38;;;;;;;1.88;1.17;;;;;;;;;;5131392;27;20079;-73
2023/07/20 14:07:06;;;;;;;1.42;0.95;;;;;;;;;;5130307;27;20047;-71
2023/07/20 14:09:33;;;;;;;1.27;1.00;;;;;;;;;;5130772;27;20483;-69
2023/07/20 14:11:59;;;;;;;3.28;1.20;;;;;;;;;;5130754;27;20047;-70
2023/07/20 14:14:29;;;;;;;2.25;1.20;;;;;;;;;;5130874;27;20043;-68
2023/07/20 14:16:56;;;;;;;2.10;1.17;;;;;;;;;;5130590;27;20039;-72
2023/07/20 14:19:23;;;;;;;2.05;0.88;;;;;;;;;;5131159;27;20073;-69
2023/07/20 14:21:50;;;;;;;1.17;0.90;;;;;;;;;;5130600;27;20084;-77
2023/07/20 14:24:16;;;;;;;2.20;1.08;;;;;;;;;;5130566;27;20050;-77
2023/07/20 14:26:47;;;;;;;3.90;1.42;;;;;;;;;;5130282;27;20413;-69
2023/07/20 14:29:14;;;;;;;2.15;1.20;;;;;;;;;;5130236;27;20047;-70
2023/07/20 14:31:41;;;;;;;2.30;1.20;;;;;;;;;;5129989;27;20418;-68
2023/07/20 14:34:08;;;;;;;2.00;1.20;;;;;;;;;;5130741;27;20046;-69
2023/07/20 14:36:35;;;;;;;1.90;1.30;;;;;;;;;;5130439;27;20055;-69
2023/07/20 14:39:02;;;;;;;3.97;1.17;;;;;;;;;;5130027;27;20399;-68
2023/07/20 14:41:29;;;;;;;2.33;1.17;;;;;;;;;;5130237;27;20516;-67
2023/07/20 14:43:55;;;;;;;2.30;1.10;;;;;;;;;;5130001;27;20043;-68
2023/07/20 14:46:24;;;;;;;1.75;1.00;;;;;;;;;;5130385;27;20047;-68
2023/07/20 14:48:51;;;;;;;1.90;1.27;;;;;;;;;;5130224;27;20130;-71
2023/07/20 14:51:21;;;;;;;2.10;0.95;;;;;;;;;;5130633;27;20043;-71
2023/07/20 14:53:47;;;;;;;2.38;1.20;;;;;;;;;;5129651;27;20053;-68